Time;durP1;ratioP1;P1;durP2;ratioP2;P2;SDS_P1;SDS_P2;PMS_P1;PMS_P2;Temp;Humidity;BMP_temperature;BMP_pressure;BME280_temperature;BME280_humidity;BME280_pressure;Samples;Min_cycle;Max_cycle;Signal;HPM_P1;HPM_P2
2021/05/12 00:00:30;;;;;;;8.55;5.65;;;;;;;12.21;71.86;101295.50;6337943;28;20266;-70
2021/05/12 00:03:35;;;;;;;9.80;5.28;;;;;;;12.16;71.80;101281.63;6336550;28;20519;-71
2021/05/12 00:06:40;;;;;;;5.97;5.32;;;;;;;12.13;72.17;101298.47;6337578;28;20246;-71
2021/05/12 00:09:44;;;;;;;10.40;5.78;;;;;;;12.13;72.45;101303.94;6337166;28;20183;-71
2021/05/12 00:12:48;;;;;;;6.25;5.50;;;;;;;12.01;72.89;101294.75;6337271;28;20206;-71
2021/05/12 00:15:52;;;;;;;5.80;5.40;;;;;;;12.17;72.12;101305.19;6337755;28;20225;-71
2021/05/12 00:18:56;;;;;;;6.35;5.70;;;;;;;12.20;72.23;101291.06;6336290;28;20385;-70
2021/05/12 00:22:12;;;;;;;10.00;5.32;;;;;;;12.16;72.66;101291.72;6337747;28;20246;-70
2021/05/12 00:25:16;;;;;;;11.25;5.43;;;;;;;12.02;72.41;101269.06;6336554;28;20194;-70
2021/05/12 00:28:21;;;;;;;5.05;4.75;;;;;;;12.17;72.05;101294.25;6336488;28;20197;-70
2021/05/12 00:31:25;;;;;;;6.25;5.05;;;;;;;12.11;72.44;101286.91;6337529;28;20187;-71
2021/05/12 00:34:31;;;;;;;7.22;5.15;;;;;;;12.19;72.01;101281.22;6337145;28;20211;-70
2021/05/12 00:37:35;;;;;;;5.20;4.80;;;;;;;12.14;72.23;101283.75;6337486;28;20214;-71
2021/05/12 00:40:38;;;;;;;5.30;5.00;;;;;;;12.07;72.80;101290.31;6337263;28;20222;-70
2021/05/12 00:43:42;;;;;;;6.07;5.10;;;;;;;12.11;72.41;101283.34;6336108;28;20501;-70
2021/05/12 00:46:48;;;;;;;5.80;5.13;;;;;;;11.98;73.27;101278.75;6335878;28;20247;-70
2021/05/12 00:49:53;;;;;;;6.05;5.05;;;;;;;12.04;72.50;101277.91;6336574;28;20234;-70
2021/05/12 00:52:56;;;;;;;8.00;4.93;;;;;;;12.07;72.16;101266.50;6336873;28;20217;-70
2021/05/12 00:56:01;;;;;;;5.28;4.78;;;;;;;12.04;72.11;101277.06;6336759;28;20187;-71
2021/05/12 00:59:06;;;;;;;5.30;4.90;;;;;;;11.73;72.11;101220.38;6335863;28;20448;-70
2021/05/12 01:02:10;;;;;;;4.90;4.65;;;;;;;11.96;71.98;101248.06;6337284;28;20182;-70
2021/05/12 01:05:22;;;;;;;6.38;4.75;;;;;;;12.03;72.42;101269.91;6347649;22;20478;-70
2021/05/12 01:08:27;;;;;;;5.60;4.28;;;;;;;11.99;72.46;101269.50;6335658;28;20466;-70
2021/05/12 01:11:32;;;;;;;5.20;4.75;;;;;;;12.04;72.12;101272.44;6334911;28;20493;-70
2021/05/12 01:14:36;;;;;;;6.20;4.90;;;;;;;12.06;72.16;101267.59;6335493;28;20524;-70
2021/05/12 01:17:41;;;;;;;5.32;4.55;;;;;;;12.07;72.13;101274.72;6335615;28;20183;-71
2021/05/12 01:20:53;;;;;;;5.10;4.80;;;;;;;12.18;71.59;101263.09;6335694;28;20479;-70
2021/05/12 01:23:57;;;;;;;4.93;4.55;;;;;;;12.22;71.42;101269.81;6341289;28;20191;-70
2021/05/12 01:27:00;;;;;;;4.90;4.60;;;;;;;12.25;71.11;101263.91;6340276;28;20489;-70
2021/05/12 01:30:07;;;;;;;8.02;4.55;;;;;;;12.17;71.27;101264.16;6339973;28;20205;-70
2021/05/12 01:33:16;;;;;;;8.07;4.70;;;;;;;12.07;71.90;101266.50;6339773;28;20213;-70
2021/05/12 01:36:21;;;;;;;5.53;4.57;;;;;;;12.06;71.67;101259.38;6340264;28;20182;-71
2021/05/12 01:39:26;;;;;;;10.05;4.70;;;;;;;12.09;71.47;101256.22;6340242;28;20183;-71
2021/05/12 01:42:29;;;;;;;4.95;4.35;;;;;;;11.98;71.66;101256.88;6339386;28;20198;-70
2021/05/12 01:45:33;;;;;;;9.43;4.50;;;;;;;11.93;71.99;101259.44;6340997;28;20202;-71
2021/05/12 01:48:37;;;;;;;4.57;4.40;;;;;;;12.01;71.86;101253.72;6339704;28;20421;-71
2021/05/12 01:51:41;;;;;;;5.70;4.72;;;;;;;12.08;71.87;101251.78;6340731;28;20212;-71
2021/05/12 01:54:45;;;;;;;5.53;4.80;;;;;;;12.00;71.86;101254.75;6339385;28;20541;-71
2021/05/12 01:57:49;;;;;;;4.40;4.15;;;;;;;12.21;70.23;101257.22;6340668;28;20182;-71
2021/05/12 02:00:54;;;;;;;5.53;4.53;;;;;;;12.07;70.89;101255.56;6340598;28;20182;-71
2021/05/12 02:04:01;;;;;;;7.63;3.90;;;;;;;12.08;69.80;101229.91;6339463;28;20454;-70
2021/05/12 02:07:08;;;;;;;7.60;4.10;;;;;;;12.25;69.70;101249.41;6340296;28;20214;-71
2021/05/12 02:10:12;;;;;;;4.35;3.90;;;;;;;12.21;69.55;101251.72;6340440;28;20258;-71
2021/05/12 02:13:16;;;;;;;4.30;3.78;;;;;;;12.23;69.56;101249.63;6340120;28;20228;-70
2021/05/12 02:16:20;;;;;;;5.30;4.28;;;;;;;12.10;70.76;101249.66;6339036;28;20206;-71
2021/05/12 02:19:24;;;;;;;6.50;3.72;;;;;;;12.22;69.75;101242.44;6340167;28;20182;-70
2021/05/12 02:22:28;;;;;;;6.15;4.22;;;;;;;12.24;69.80;101243.09;6339900;28;20183;-70
2021/05/12 02:25:34;;;;;;;4.30;4.00;;;;;;;12.26;69.42;101254.66;6337701;28;20244;-71
2021/05/12 02:28:37;;;;;;;5.15;4.40;;;;;;;12.22;70.17;101245.19;6338656;28;20367;-71
2021/05/12 02:31:41;;;;;;;11.93;4.80;;;;;;;12.18;70.41;101240.38;6338679;28;20446;-71
2021/05/12 02:34:44;;;;;;;4.90;4.25;;;;;;;12.15;70.64;101217.03;6337776;28;20525;-71
2021/05/12 02:37:49;;;;;;;5.07;4.47;;;;;;;12.17;70.22;101228.59;6338549;28;20433;-70
2021/05/12 02:40:52;;;;;;;5.32;4.82;;;;;;;11.95;70.80;101202.63;6339349;28;20221;-71
2021/05/12 02:43:56;;;;;;;5.00;4.00;;;;;;;12.25;70.23;101243.94;6339791;28;20194;-71
2021/05/12 02:47:00;;;;;;;6.47;3.72;;;;;;;12.11;70.30;101215.81;6339484;28;20293;-70
2021/05/12 02:50:06;;;;;;;7.70;4.30;;;;;;;12.13;70.38;101232.00;6338311;28;20410;-71
2021/05/12 02:53:15;;;;;;;5.30;4.05;;;;;;;12.27;70.26;101229.00;6339470;28;20183;-71
2021/05/12 02:56:19;;;;;;;4.20;3.95;;;;;;;12.17;70.71;101217.66;6338305;28;20290;-71
2021/05/12 02:59:23;;;;;;;6.22;4.32;;;;;;;12.23;70.22;101215.94;6337903;28;20218;-71
2021/05/12 03:02:27;;;;;;;4.82;4.30;;;;;;;12.34;69.92;101220.72;6337913;28;20474;-71
2021/05/12 03:05:31;;;;;;;5.25;4.63;;;;;;;12.22;70.13;101217.84;6337865;28;20265;-70
2021/05/12 03:08:36;;;;;;;4.50;4.10;;;;;;;12.15;70.57;101230.72;6339102;28;20183;-71
2021/05/12 03:11:40;;;;;;;5.57;4.28;;;;;;;12.20;70.45;101236.38;6337716;28;20505;-71
2021/05/12 03:14:44;;;;;;;4.63;4.40;;;;;;;12.15;70.86;101230.72;6338568;28;20256;-71
2021/05/12 03:17:48;;;;;;;4.40;4.10;;;;;;;12.15;70.49;101225.25;6339008;28;20183;-71
2021/05/12 03:20:52;;;;;;;8.00;4.50;;;;;;;12.07;71.45;101217.28;6338672;28;20275;-71
2021/05/12 03:23:57;;;;;;;6.07;4.40;;;;;;;12.22;71.05;101236.97;6338516;28;20208;-71
2021/05/12 03:27:01;;;;;;;4.72;4.22;;;;;;;12.19;70.92;101231.97;6338685;28;20225;-70
2021/05/12 03:30:08;;;;;;;4.43;4.15;;;;;;;12.19;70.79;101237.44;6337157;28;20512;-70
2021/05/12 03:33:16;;;;;;;4.80;4.18;;;;;;;12.20;70.90;101236.38;6337304;28;20205;-71
2021/05/12 03:36:20;;;;;;;5.03;4.40;;;;;;;12.14;71.65;101234.53;6336924;28;20570;-70
2021/05/12 03:39:25;;;;;;;5.05;4.47;;;;;;;12.21;71.47;101243.53;6338432;28;20182;-70
2021/05/12 03:42:28;;;;;;;11.05;4.13;;;;;;;12.22;70.67;101231.50;6338227;28;20183;-70
2021/05/12 03:45:32;;;;;;;4.15;3.95;;;;;;;12.43;70.06;101233.94;6336972;28;20209;-71
2021/05/12 03:48:36;;;;;;;6.68;3.72;;;;;;;12.41;69.59;101224.25;6338098;28;20207;-71
2021/05/12 03:51:40;;;;;;;13.77;3.70;;;;;;;12.46;69.23;101210.75;6337202;28;20218;-71
2021/05/12 03:54:44;;;;;;;7.03;3.88;;;;;;;12.51;68.56;101214.50;6335578;28;20446;-71
2021/05/12 03:57:48;;;;;;;7.32;4.15;;;;;;;12.56;68.37;101211.94;6336648;28;20205;-71
2021/05/12 04:00:52;;;;;;;14.05;4.07;;;;;;;12.61;68.48;101203.06;6337560;28;20220;-71
2021/05/12 04:03:55;;;;;;;10.38;4.22;;;;;;;12.60;68.91;101206.88;6336349;28;20559;-72
2021/05/12 04:06:59;;;;;;;8.15;3.83;;;;;;;12.62;68.91;101207.50;6337513;28;20183;-71
2021/05/12 04:10:06;;;;;;;8.07;3.78;;;;;;;12.69;68.69;101207.44;6336488;28;20500;-71
2021/05/12 04:13:12;;;;;;;4.70;3.67;;;;;;;12.77;68.36;101207.16;6336832;28;20214;-71
2021/05/12 04:16:16;;;;;;;7.00;3.50;;;;;;;12.77;68.21;101218.13;6336326;28;20493;-71
2021/05/12 04:19:20;;;;;;;11.52;3.92;;;;;;;12.77;68.13;101208.00;6337317;28;20183;-71
2021/05/12 04:22:24;;;;;;;5.60;4.00;;;;;;;12.88;67.60;101192.75;6337449;28;20189;-71
2021/05/12 04:25:28;;;;;;;4.07;3.75;;;;;;;12.94;67.31;101198.16;6336237;28;20240;-71
2021/05/12 04:28:43;;;;;;;5.30;3.75;;;;;;;12.92;67.72;101202.19;6337329;28;20183;-71
2021/05/12 04:31:50;;;;;;;11.75;3.65;;;;;;;12.96;67.61;101203.44;6336294;28;20374;-71
2021/05/12 04:34:54;;;;;;;4.35;3.50;;;;;;;13.13;66.34;101196.34;6337442;28;20273;-70
2021/05/12 04:37:58;;;;;;;9.50;3.55;;;;;;;13.14;66.67;101198.06;6337149;28;20253;-70
2021/05/12 04:41:02;;;;;;;6.15;3.78;;;;;;;13.16;66.40;101196.75;6337519;28;20182;-72
2021/05/12 04:44:06;;;;;;;9.57;4.30;;;;;;;13.28;66.19;101205.06;6336121;28;20411;-71
2021/05/12 04:47:12;;;;;;;16.00;3.88;;;;;;;13.35;66.31;101194.06;6336995;28;20226;-70
2021/05/12 04:50:15;;;;;;;10.00;3.47;;;;;;;13.48;65.74;101202.94;6336111;28;20205;-70
2021/05/12 04:53:20;;;;;;;8.00;3.55;;;;;;;13.49;64.92;101207.38;6336827;28;20282;-70
2021/05/12 04:56:24;;;;;;;7.45;3.47;;;;;;;13.56;64.63;101210.88;6337977;28;20266;-71
2021/05/12 04:59:28;;;;;;;6.55;3.85;;;;;;;13.68;64.60;101200.84;6342080;28;20190;-71
2021/05/12 05:02:31;;;;;;;9.57;3.60;;;;;;;13.72;64.68;101207.53;6341867;28;20229;-72
2021/05/12 05:05:35;;;;;;;6.22;3.60;;;;;;;13.79;64.15;101197.31;6340834;28;20231;-71
2021/05/12 05:08:39;;;;;;;5.68;3.38;;;;;;;13.77;63.19;101202.22;6341938;28;20182;-72
2021/05/12 05:11:43;;;;;;;9.80;3.40;;;;;;;13.92;63.13;101201.00;6340509;28;20375;-71
2021/05/12 05:14:47;;;;;;;8.43;3.60;;;;;;;13.95;63.10;101200.50;6341005;28;20210;-71
2021/05/12 05:17:51;;;;;;;4.53;3.30;;;;;;;14.13;62.91;101214.22;6340369;28;20481;-71
2021/05/12 05:20:55;;;;;;;8.48;3.55;;;;;;;14.18;62.07;101208.88;6341447;28;20189;-71
2021/05/12 05:24:00;;;;;;;3.33;3.13;;;;;;;14.26;61.23;101208.53;6340216;28;20240;-71
2021/05/12 05:27:05;;;;;;;13.73;3.28;;;;;;;14.03;60.68;101148.06;6340029;28;20422;-71
2021/05/12 05:30:11;;;;;;;4.00;2.92;;;;;;;14.39;59.51;101209.25;6341157;28;20224;-71
2021/05/12 05:33:33;;;;;;;12.90;2.85;;;;;;;14.47;59.06;101205.31;6339797;28;20373;-71
2021/05/12 05:36:55;;;;;;;13.32;3.33;;;;;;;14.57;58.46;101211.09;6340640;28;20214;-71
2021/05/12 05:40:18;;;;;;;3.50;3.20;;;;;;;14.70;58.13;101196.31;6340518;28;20215;-71
2021/05/12 05:43:58;;;;;;;7.05;2.80;;;;;;;14.84;57.78;101190.34;6264051;28;20521;-72
2021/05/12 05:47:26;;;;;;;4.05;3.25;;;;;;;14.93;57.43;101188.13;6311257;28;20256;-72
2021/05/12 05:50:49;;;;;;;7.85;3.10;;;;;;;15.05;56.52;101197.19;6340137;28;20190;-72
2021/05/12 05:54:28;;;;;;;2.95;2.85;;;;;;;15.17;55.95;101188.97;6265132;28;20205;-73
2021/05/12 05:57:51;;;;;;;5.00;3.38;;;;;;;15.23;55.33;101193.53;6340656;28;20220;-72
2021/05/12 06:01:15;;;;;;;16.48;3.58;;;;;;;15.32;55.49;101167.34;6340143;28;20183;-71
2021/05/12 06:04:20;;;;;;;8.52;2.92;;;;;;;15.58;54.22;101195.22;6339583;28;20227;-72
2021/05/12 06:07:42;;;;;;;12.98;3.47;;;;;;;15.73;54.04;101200.19;6339375;28;20183;-72
2021/05/12 06:11:06;;;;;;;5.05;3.00;;;;;;;15.80;53.27;101206.41;6339146;28;20183;-72
2021/05/12 06:14:29;;;;;;;3.20;3.00;;;;;;;15.86;52.53;101199.94;6338967;28;20474;-72
2021/05/12 06:17:52;;;;;;;6.75;2.90;;;;;;;15.96;53.14;101197.41;6340035;28;20246;-73
2021/05/12 06:21:15;;;;;;;3.30;3.10;;;;;;;16.13;52.15;101202.94;6339794;28;20187;-72
2021/05/12 06:24:38;;;;;;;8.35;3.30;;;;;;;16.29;52.76;101200.25;6339682;28;20225;-71
2021/05/12 06:28:00;;;;;;;10.02;3.28;;;;;;;16.31;51.76;101182.69;6339107;28;20266;-71
2021/05/12 06:31:23;;;;;;;12.90;3.15;;;;;;;16.41;51.49;101196.63;6339432;28;20184;-71
2021/05/12 06:34:46;;;;;;;3.38;2.70;;;;;;;16.42;50.52;101203.78;6338002;28;20183;-71
2021/05/12 06:38:08;;;;;;;2.72;2.63;;;;;;;16.49;50.79;101198.97;6339563;28;20285;-71
2021/05/12 06:41:11;;;;;;;6.10;2.95;;;;;;;16.60;50.45;101206.38;6339116;28;20195;-71
2021/05/12 06:44:15;;;;;;;3.00;2.80;;;;;;;16.65;49.20;101198.19;6338861;28;20183;-72
2021/05/12 06:47:19;;;;;;;9.93;2.92;;;;;;;16.70;48.72;101201.88;6337827;28;20249;-71
2021/05/12 06:50:25;;;;;;;5.75;3.15;;;;;;;16.71;49.84;101183.44;6337665;28;20373;-71
2021/05/12 06:53:31;;;;;;;12.23;3.17;;;;;;;16.89;49.43;101202.50;6339077;28;20246;-71
2021/05/12 06:56:34;;;;;;;3.25;3.05;;;;;;;16.86;49.19;101212.09;6338584;28;20308;-71
2021/05/12 06:59:38;;;;;;;3.85;2.80;;;;;;;16.99;48.32;101210.94;6338553;28;20255;-70
2021/05/12 07:02:42;;;;;;;8.48;3.08;;;;;;;17.12;48.02;101198.75;6338314;28;20228;-70
2021/05/12 07:05:46;;;;;;;4.15;2.50;;;;;;;17.19;48.49;101205.75;6338264;28;20463;-71
2021/05/12 07:08:51;;;;;;;11.00;2.97;;;;;;;17.36;49.42;101206.56;6338641;28;20183;-72
2021/05/12 07:11:54;;;;;;;16.65;3.05;;;;;;;17.35;47.81;101204.06;6338523;28;20183;-72
2021/05/12 07:14:59;;;;;;;3.90;2.55;;;;;;;17.43;47.15;101198.97;6337519;28;20409;-72
2021/05/12 07:18:02;;;;;;;8.65;3.10;;;;;;;17.46;47.47;101206.72;6338727;28;20211;-72
2021/05/12 07:21:08;;;;;;;4.80;2.92;;;;;;;17.49;47.10;101206.22;6338546;28;20223;-72
2021/05/12 07:24:13;;;;;;;8.67;3.27;;;;;;;17.52;47.16;101197.47;6338263;28;20250;-72
2021/05/12 07:27:17;;;;;;;15.15;3.10;;;;;;;17.80;47.45;101206.66;6338322;28;20590;-72
2021/05/12 07:30:21;;;;;;;11.05;3.22;;;;;;;17.88;45.98;101204.28;6337051;28;20774;-72
2021/05/12 07:33:25;;;;;;;12.15;3.70;;;;;;;17.90;46.37;101209.56;6337581;28;20183;-71
2021/05/12 07:36:36;;;;;;;3.85;3.20;;;;;;;18.04;44.86;101219.97;6336942;28;20260;-72
2021/05/12 07:39:40;;;;;;;6.72;2.70;;;;;;;18.11;44.69;101214.25;6337768;28;20183;-71
2021/05/12 07:42:45;;;;;;;11.00;3.00;;;;;;;18.08;45.04;101215.59;6337452;28;20296;-71
2021/05/12 07:45:49;;;;;;;9.30;3.13;;;;;;;18.04;44.19;101230.19;6336402;28;20187;-72
2021/05/12 07:48:52;;;;;;;7.25;3.30;;;;;;;18.13;44.26;101218.41;6336210;28;20313;-71
2021/05/12 07:51:57;;;;;;;11.10;3.10;;;;;;;18.24;43.71;101219.38;6337245;28;20260;-71
2021/05/12 07:55:01;;;;;;;8.35;3.08;;;;;;;18.23;43.86;101217.72;6337352;28;20267;-70
2021/05/12 07:58:05;;;;;;;8.70;3.30;;;;;;;18.10;43.81;101220.88;6337574;28;20217;-72
2021/05/12 08:01:18;;;;;;;8.40;2.88;;;;;;;18.13;42.85;101223.09;6335918;28;20519;-72
2021/05/12 08:04:24;;;;;;;15.65;3.05;;;;;;;18.11;43.08;101226.13;6336062;28;20232;-72
2021/05/12 08:07:38;;;;;;;2.88;2.60;;;;;;;17.96;43.07;101214.06;6336046;28;20474;-71
2021/05/12 08:10:41;;;;;;;5.13;3.20;;;;;;;17.77;43.87;101208.00;6336931;28;20236;-71
2021/05/12 08:13:45;;;;;;;5.68;2.88;;;;;;;17.66;44.37;101210.91;6335926;28;20205;-71
2021/05/12 08:16:49;;;;;;;7.85;2.80;;;;;;;17.70;43.92;101217.56;6337013;28;20244;-72
2021/05/12 08:19:56;;;;;;;9.50;3.25;;;;;;;17.63;43.79;101205.88;6337056;28;20189;-72
2021/05/12 08:23:00;;;;;;;4.47;2.75;;;;;;;17.60;44.11;101209.16;6337229;28;20183;-73
2021/05/12 08:26:04;;;;;;;6.93;3.60;;;;;;;17.62;44.52;101215.22;6335999;28;20186;-72
2021/05/12 08:29:08;;;;;;;4.88;2.60;;;;;;;17.55;43.92;101209.06;6336556;28;20251;-72
2021/05/12 08:32:14;;;;;;;9.20;2.97;;;;;;;17.60;44.27;101206.38;6338775;28;20183;-72
2021/05/12 08:35:18;;;;;;;9.45;2.88;;;;;;;17.59;44.46;101205.53;6340863;28;20430;-72
2021/05/12 08:38:25;;;;;;;6.97;2.95;;;;;;;17.50;44.27;101213.41;6339875;28;20218;-72
2021/05/12 08:41:32;;;;;;;8.70;3.22;;;;;;;17.48;44.60;101210.06;6340813;28;20405;-72
2021/05/12 08:44:35;;;;;;;2.92;2.72;;;;;;;17.56;43.85;101199.72;6341197;28;20183;-71
2021/05/12 08:47:44;;;;;;;2.78;2.58;;;;;;;17.56;44.30;101199.72;6342016;28;20201;-72
2021/05/12 08:50:48;;;;;;;9.70;3.20;;;;;;;17.62;44.22;101184.88;6340552;28;20546;-72
2021/05/12 08:53:54;;;;;;;4.15;2.55;;;;;;;17.73;43.90;101206.03;6341641;28;20254;-72
2021/05/12 08:56:58;;;;;;;8.88;2.90;;;;;;;17.68;43.53;101203.19;6341148;28;20274;-72
2021/05/12 09:00:01;;;;;;;8.43;2.80;;;;;;;17.74;43.11;101202.19;6341299;28;20187;-72
2021/05/12 09:03:06;;;;;;;15.20;3.05;;;;;;;17.73;43.50;101209.63;6341255;28;20205;-72
2021/05/12 09:06:11;;;;;;;8.02;2.97;;;;;;;17.75;45.01;101199.16;6340779;28;20298;-72
2021/05/12 09:09:16;;;;;;;9.73;2.67;;;;;;;17.80;43.09;101201.13;6340271;28;20489;-72
2021/05/12 09:12:20;;;;;;;12.80;3.05;;;;;;;17.87;43.44;101190.78;6341477;28;20250;-72
2021/05/12 09:15:26;;;;;;;3.17;2.60;;;;;;;17.75;43.61;101209.34;6341649;28;20220;-72
2021/05/12 09:18:30;;;;;;;5.90;2.75;;;;;;;17.80;44.45;101185.41;6341402;28;20242;-72
2021/05/12 09:21:52;;;;;;;6.63;2.72;;;;;;;17.88;42.77;101186.91;6341995;28;20191;-73
2021/05/12 09:25:06;;;;;;;8.13;2.90;;;;;;;17.96;43.15;101184.53;6341119;28;20183;-72
2021/05/12 09:28:14;;;;;;;12.00;2.88;;;;;;;18.01;43.41;101173.56;6340601;28;20278;-72
2021/05/12 09:31:18;;;;;;;12.68;3.47;;;;;;;18.07;43.38;101180.81;6341190;28;20183;-72
2021/05/12 09:34:22;;;;;;;2.97;2.67;;;;;;;18.15;42.64;101174.00;6340415;28;20191;-72
2021/05/12 09:37:28;;;;;;;8.40;2.67;;;;;;;18.19;42.89;101177.91;6339853;28;20482;-72
2021/05/12 09:40:33;;;;;;;2.95;2.75;;;;;;;18.29;42.83;101168.88;6340304;28;20205;-71
2021/05/12 09:43:40;;;;;;;5.20;2.60;;;;;;;18.28;43.17;101170.00;6341320;28;20222;-71
2021/05/12 09:46:43;;;;;;;3.05;2.70;;;;;;;18.28;43.27;101173.59;6340551;28;20190;-71
2021/05/12 09:49:47;;;;;;;7.38;2.67;;;;;;;18.41;42.75;101164.88;6340340;28;20190;-71
2021/05/12 09:52:52;;;;;;;17.67;3.30;;;;;;;18.42;43.79;101144.44;6340054;28;20204;-71
2021/05/12 09:55:56;;;;;;;3.83;3.05;;;;;;;18.54;42.12;101153.44;6339477;28;20237;-71
2021/05/12 09:59:06;;;;;;;7.57;2.72;;;;;;;18.53;42.18;101150.94;6340019;28;20368;-72
2021/05/12 10:02:13;;;;;;;3.38;2.60;;;;;;;18.32;41.75;101127.78;6339210;28;20187;-74
2021/05/12 10:05:17;;;;;;;7.70;2.92;;;;;;;18.53;41.59;101151.78;6339273;28;20359;-72
2021/05/12 10:08:22;;;;;;;6.28;2.90;;;;;;;18.63;40.89;101151.88;6339681;28;20214;-72
2021/05/12 10:11:26;;;;;;;4.05;2.60;;;;;;;18.65;40.47;101155.19;6338542;28;20206;-72
2021/05/12 10:14:32;;;;;;;4.25;2.55;;;;;;;18.75;40.39;101149.75;6338426;28;20521;-71
2021/05/12 10:17:37;;;;;;;7.20;3.00;;;;;;;18.79;40.93;101149.25;6339480;28;20207;-72
2021/05/12 10:20:41;;;;;;;12.40;3.55;;;;;;;18.88;40.92;101153.16;6339408;28;20370;-72
2021/05/12 10:23:46;;;;;;;11.23;2.75;;;;;;;18.84;40.46;101147.34;6339432;28;20194;-72
2021/05/12 10:26:51;;;;;;;7.63;2.78;;;;;;;18.93;40.07;101159.56;6338498;28;20281;-72
2021/05/12 10:29:57;;;;;;;10.25;2.70;;;;;;;18.87;39.51;101157.06;6338671;28;20183;-71
2021/05/12 10:33:02;;;;;;;3.53;2.85;;;;;;;18.79;40.06;101150.06;6339017;28;20183;-71
2021/05/12 10:36:09;;;;;;;5.40;3.08;;;;;;;18.83;39.59;101150.38;6338686;28;20214;-71
2021/05/12 10:39:20;;;;;;;6.13;3.00;;;;;;;18.92;39.62;101152.41;6337849;28;20214;-72
2021/05/12 10:42:44;;;;;;;9.35;3.30;;;;;;;18.96;40.44;101156.28;6338189;28;20221;-72
2021/05/12 10:46:01;;;;;;;6.03;2.47;;;;;;;18.92;40.33;101155.16;6337474;28;20228;-71
2021/05/12 10:49:07;;;;;;;10.13;3.17;;;;;;;18.90;40.26;101134.41;6336445;28;20211;-71
2021/05/12 10:52:10;;;;;;;9.13;3.15;;;;;;;18.89;39.76;101149.31;6338633;28;20183;-72
2021/05/12 10:55:15;;;;;;;16.98;2.83;;;;;;;18.92;39.71;101149.63;6337526;28;20183;-71
2021/05/12 10:58:19;;;;;;;3.65;3.00;;;;;;;18.92;40.01;101148.78;6337725;28;20245;-70
2021/05/12 11:01:26;;;;;;;4.55;2.85;;;;;;;19.01;40.36;101147.19;6337770;28;20189;-72
2021/05/12 11:04:30;;;;;;;5.55;2.95;;;;;;;19.11;40.61;101136.19;6337399;28;20230;-71
2021/05/12 11:07:34;;;;;;;9.52;2.72;;;;;;;19.06;40.21;101144.47;6338280;28;20218;-71
2021/05/12 11:10:49;;;;;;;4.20;2.78;;;;;;;19.11;40.35;101136.19;6338094;28;20187;-71
2021/05/12 11:14:19;;;;;;;4.97;2.67;;;;;;;19.07;40.24;101146.13;6338041;28;20187;-71
2021/05/12 11:17:41;;;;;;;13.65;2.53;;;;;;;19.05;39.91;101148.34;6337954;28;20238;-71
2021/05/12 11:20:45;;;;;;;11.65;2.90;;;;;;;19.22;40.95;101143.47;6337647;28;20187;-72
2021/05/12 11:24:10;;;;;;;3.13;2.80;;;;;;;19.33;40.84;101148.81;6338023;28;20182;-72
2021/05/12 11:27:22;;;;;;;5.97;5.38;;;;;;;19.35;40.01;101154.06;6336369;28;20234;-73
2021/05/12 11:33:51;;;;;;;6.68;2.50;;;;;;;19.47;40.92;101146.44;6337988;28;20183;-75
2021/05/12 11:37:04;;;;;;;9.65;2.97;;;;;;;19.56;39.95;101150.38;6337999;28;20250;-71
2021/05/12 11:40:15;;;;;;;13.55;3.08;;;;;;;19.51;39.93;101150.34;6336204;28;20183;-71
2021/05/12 11:43:19;;;;;;;6.10;3.00;;;;;;;19.47;39.00;101151.13;6337679;28;20304;-71
2021/05/12 11:46:25;;;;;;;20.10;2.95;;;;;;;19.36;39.48;101128.09;6337570;28;20183;-73
2021/05/12 11:49:30;;;;;;;17.38;2.97;;;;;;;19.45;39.38;101162.47;6337258;28;20250;-71
2021/05/12 11:52:33;;;;;;;3.22;2.88;;;;;;;19.36;39.34;101153.00;6337268;28;20214;-71
2021/05/12 11:55:38;;;;;;;8.23;2.85;;;;;;;19.35;38.74;101159.63;6337609;28;20186;-72
2021/05/12 11:58:49;;;;;;;4.55;2.70;;;;;;;19.39;39.13;101154.41;6336118;28;20590;-72
2021/05/12 12:02:06;;;;;;;10.07;2.92;;;;;;;19.60;38.81;101157.03;6336304;28;20183;-71
2021/05/12 12:05:14;;;;;;;20.42;3.53;;;;;;;19.67;39.48;101178.94;6336150;28;20235;-71
2021/05/12 12:08:21;;;;;;;6.28;2.85;;;;;;;19.56;39.09;101166.97;6336035;28;20186;-71
2021/05/12 12:11:30;;;;;;;6.35;2.60;;;;;;;19.59;38.82;101169.22;6335939;28;20411;-71
2021/05/12 12:14:36;;;;;;;9.60;2.90;;;;;;;19.60;38.32;101162.56;6336569;28;20219;-71
2021/05/12 12:17:41;;;;;;;13.40;2.95;;;;;;;19.46;38.94;101155.84;6352392;28;20222;-72
2021/05/12 12:20:45;;;;;;;4.93;2.60;;;;;;;19.53;38.16;101156.44;6336862;28;20187;-72
2021/05/12 12:23:49;;;;;;;4.80;3.00;;;;;;;19.69;38.49;101160.13;6335570;28;20183;-71
2021/05/12 12:27:02;;;;;;;5.93;3.00;;;;;;;19.67;38.12;101152.06;6336914;28;20183;-72
2021/05/12 12:30:07;;;;;;;9.68;2.97;;;;;;;19.56;38.22;101155.91;6337187;28;20224;-71
2021/05/12 12:33:20;;;;;;;5.63;2.92;;;;;;;19.72;38.71;101157.63;6336993;28;20183;-73
2021/05/12 12:36:24;;;;;;;12.77;2.83;;;;;;;19.72;38.16;101152.09;6335542;28;20183;-71
2021/05/12 12:39:45;;;;;;;8.95;3.00;;;;;;;19.79;39.06;101116.69;6336830;28;20277;-71
2021/05/12 12:42:51;;;;;;;9.25;2.92;;;;;;;19.98;38.08;101159.41;6336438;28;20183;-72
2021/05/12 12:45:55;;;;;;;5.05;2.75;;;;;;;19.92;38.74;101143.88;6335404;28;20497;-71
2021/05/12 12:48:59;;;;;;;4.25;2.55;;;;;;;20.06;38.69;101148.91;6335209;28;20186;-72
2021/05/12 12:52:12;;;;;;;7.18;3.00;;;;;;;20.12;37.53;101153.34;6335730;28;20183;-72
2021/05/12 12:55:18;;;;;;;6.78;2.70;;;;;;;20.15;36.90;101148.13;6334823;28;20341;-74
2021/05/12 12:58:21;;;;;;;9.98;3.15;;;;;;;20.33;36.71;101144.03;6335104;28;20268;-72
2021/05/12 13:01:32;;;;;;;9.68;2.88;;;;;;;20.28;36.44;101157.88;6335231;28;20465;-72
2021/05/12 13:04:38;;;;;;;3.85;3.00;;;;;;;20.35;37.42;101144.59;6335894;28;20230;-72
2021/05/12 13:07:43;;;;;;;11.63;2.70;;;;;;;20.50;37.00;101155.69;6335170;28;20559;-72
2021/05/12 13:10:47;;;;;;;7.03;2.92;;;;;;;20.64;37.16;101151.28;6336005;28;20183;-72
2021/05/12 13:13:54;;;;;;;5.95;2.70;;;;;;;20.66;37.57;101151.84;6336319;28;20260;-72
2021/05/12 13:17:04;;;;;;;4.78;2.58;;;;;;;20.53;36.28;101144.06;6336349;28;20260;-72
2021/05/12 13:20:17;;;;;;;10.10;3.00;;;;;;;20.48;36.30;101144.06;6340531;28;20206;-72
2021/05/12 13:23:25;;;;;;;7.38;2.75;;;;;;;20.58;36.63;101135.75;6340441;28;20215;-72
2021/05/12 13:26:33;;;;;;;10.00;2.50;;;;;;;20.68;36.62;101135.75;6339541;28;20183;-72
2021/05/12 13:29:38;;;;;;;3.08;2.58;;;;;;;20.72;35.73;101134.09;6340514;28;20194;-72
2021/05/12 13:32:42;;;;;;;5.35;2.50;;;;;;;20.64;36.02;101140.19;6340139;28;20190;-72
2021/05/12 13:35:46;;;;;;;3.97;2.35;;;;;;;21.34;35.14;101135.75;6339206;28;20228;-72
2021/05/12 13:38:50;;;;;;;5.03;2.67;;;;;;;21.09;35.05;101129.09;6340566;28;20217;-72
2021/05/12 13:41:54;;;;;;;5.80;2.63;;;;;;;21.12;35.10;101125.78;6339309;28;20240;-72
2021/05/12 13:44:57;;;;;;;2.65;2.45;;;;;;;21.17;35.22;101139.66;6340323;28;20209;-72
2021/05/12 13:48:01;;;;;;;5.70;2.65;;;;;;;21.41;35.66;101133.50;6339682;28;20221;-72
2021/05/12 13:51:06;;;;;;;2.38;2.28;;;;;;;21.32;34.84;101124.06;6339873;28;20182;-71
2021/05/12 13:54:16;;;;;;;6.45;2.50;;;;;;;21.34;34.48;101127.41;6339940;28;20183;-71
2021/05/12 13:57:27;;;;;;;3.42;2.13;;;;;;;21.54;34.06;101128.19;6339285;28;20221;-71
2021/05/12 14:00:45;;;;;;;5.43;2.65;;;;;;;21.74;34.04;101132.81;6339704;28;20283;-71
2021/05/12 14:03:48;;;;;;;3.05;2.42;;;;;;;21.81;34.19;101127.78;6339629;28;20231;-71
2021/05/12 14:06:52;;;;;;;3.80;2.28;;;;;;;22.42;32.77;101129.13;6338705;28;20279;-71
2021/05/12 14:09:57;;;;;;;2.67;2.20;;;;;;;23.06;31.94;101123.34;6339529;28;20194;-72
2021/05/12 14:13:10;;;;;;;2.77;2.47;;;;;;;23.89;30.81;101120.22;6339584;28;20187;-73
2021/05/12 14:16:21;;;;;;;4.22;2.13;;;;;;;24.14;30.07;101117.13;6339761;28;20171;-72
2021/05/12 14:19:25;;;;;;;5.25;2.30;;;;;;;23.24;31.00;101123.75;6339541;28;20274;-71
2021/05/12 14:22:29;;;;;;;4.10;2.30;;;;;;;22.91;31.90;101120.72;6339773;28;20183;-72
2021/05/12 14:25:33;;;;;;;4.03;2.15;;;;;;;22.48;32.29;101126.31;6339319;28;20236;-72
2021/05/12 14:28:39;;;;;;;6.43;2.28;;;;;;;22.32;32.42;101128.38;6338200;28;20187;-71
2021/05/12 14:31:43;;;;;;;7.90;2.38;;;;;;;22.21;33.29;101133.16;6339170;28;20221;-72